sensor_id;sensor_type;location;lat;lon;timestamp;temperature;humidity
78649;DHT22;67962;47.310;9.642;2023-06-22T00:00:53;24.30;53.60
78649;DHT22;67962;47.310;9.642;2023-06-22T00:03:20;24.20;54.00
78649;DHT22;67962;47.310;9.642;2023-06-22T00:05:47;24.10;54.20
78649;DHT22;67962;47.310;9.642;2023-06-22T00:08:13;24.10;54.40
78649;DHT22;67962;47.310;9.642;2023-06-22T00:10:40;24.00;54.50
78649;DHT22;67962;47.310;9.642;2023-06-22T00:13:07;24.00;54.60
78649;DHT22;67962;47.310;9.642;2023-06-22T00:15:33;24.00;54.70
78649;DHT22;67962;47.310;9.642;2023-06-22T00:17:58;23.90;55.20
78649;DHT22;67962;47.310;9.642;2023-06-22T00:20:25;23.90;55.20
78649;DHT22;67962;47.310;9.642;2023-06-22T00:22:54;23.80;55.40
78649;DHT22;67962;47.310;9.642;2023-06-22T00:25:20;23.80;55.60
78649;DHT22;67962;47.310;9.642;2023-06-22T00:27:46;23.80;55.70
78649;DHT22;67962;47.310;9.642;2023-06-22T00:30:12;23.80;55.50
78649;DHT22;67962;47.310;9.642;2023-06-22T00:32:38;23.80;55.20
78649;DHT22;67962;47.310;9.642;2023-06-22T00:35:05;23.70;55.30
78649;DHT22;67962;47.310;9.642;2023-06-22T00:37:30;23.80;54.80
78649;DHT22;67962;47.310;9.642;2023-06-22T00:39:56;23.80;55.20
78649;DHT22;67962;47.310;9.642;2023-06-22T00:42:22;23.70;55.40
78649;DHT22;67962;47.310;9.642;2023-06-22T00:44:48;23.60;55.10
78649;DHT22;67962;47.310;9.642;2023-06-22T00:47:16;23.60;55.60
78649;DHT22;67962;47.310;9.642;2023-06-22T00:49:43;23.60;55.50
78649;DHT22;67962;47.310;9.642;2023-06-22T00:52:09;23.60;54.90
78649;DHT22;67962;47.310;9.642;2023-06-22T00:54:42;23.60;55.40
78649;DHT22;67962;47.310;9.642;2023-06-22T00:57:12;23.50;55.30
78649;DHT22;67962;47.310;9.642;2023-06-22T00:59:43;23.60;55.10
78649;DHT22;67962;47.310;9.642;2023-06-22T01:02:09;23.60;55.50
78649;DHT22;67962;47.310;9.642;2023-06-22T01:04:36;23.50;55.50
78649;DHT22;67962;47.310;9.642;2023-06-22T01:07:25;23.50;55.40
78649;DHT22;67962;47.310;9.642;2023-06-22T01:12:44;23.50;55.00
78649;DHT22;67962;47.310;9.642;2023-06-22T01:15:33;23.50;55.20
78649;DHT22;67962;47.310;9.642;2023-06-22T01:17:59;23.50;55.70
78649;DHT22;67962;47.310;9.642;2023-06-22T01:20:28;23.50;55.30
78649;DHT22;67962;47.310;9.642;2023-06-22T01:23:09;23.50;55.10
78649;DHT22;67962;47.310;9.642;2023-06-22T01:25:47;23.40;55.00
78649;DHT22;67962;47.310;9.642;2023-06-22T01:28:23;23.50;54.90
78649;DHT22;67962;47.310;9.642;2023-06-22T01:30:51;23.50;55.10
78649;DHT22;67962;47.310;9.642;2023-06-22T01:33:29;23.50;55.10
78649;DHT22;67962;47.310;9.642;2023-06-22T01:35:56;23.50;54.90
78649;DHT22;67962;47.310;9.642;2023-06-22T01:38:22;23.50;55.10
78649;DHT22;67962;47.310;9.642;2023-06-22T01:40:48;23.50;55.70
78649;DHT22;67962;47.310;9.642;2023-06-22T01:43:14;23.40;56.10
78649;DHT22;67962;47.310;9.642;2023-06-22T01:45:41;23.30;55.60
78649;DHT22;67962;47.310;9.642;2023-06-22T01:48:07;23.30;55.70
78649;DHT22;67962;47.310;9.642;2023-06-22T01:50:33;23.30;55.50
78649;DHT22;67962;47.310;9.642;2023-06-22T01:52:58;23.30;54.80
78649;DHT22;67962;47.310;9.642;2023-06-22T01:55:24;23.20;55.20
78649;DHT22;67962;47.310;9.642;2023-06-22T01:57:50;23.20;55.60
78649;DHT22;67962;47.310;9.642;2023-06-22T02:00:19;23.30;55.50
78649;DHT22;67962;47.310;9.642;2023-06-22T02:03:00;23.40;55.50
78649;DHT22;67962;47.310;9.642;2023-06-22T02:05:33;23.30;55.80
78649;DHT22;67962;47.310;9.642;2023-06-22T02:08:21;23.20;55.90
78649;DHT22;67962;47.310;9.642;2023-06-22T02:10:48;23.30;55.90
78649;DHT22;67962;47.310;9.642;2023-06-22T02:13:15;23.30;55.50
78649;DHT22;67962;47.310;9.642;2023-06-22T02:15:42;23.30;55.50
78649;DHT22;67962;47.310;9.642;2023-06-22T02:18:08;23.20;55.90
78649;DHT22;67962;47.310;9.642;2023-06-22T02:20:37;23.20;56.10
78649;DHT22;67962;47.310;9.642;2023-06-22T02:23:02;23.20;56.30
78649;DHT22;67962;47.310;9.642;2023-06-22T02:25:28;23.20;56.00
78649;DHT22;67962;47.310;9.642;2023-06-22T02:27:54;23.30;56.40
78649;DHT22;67962;47.310;9.642;2023-06-22T02:30:19;23.20;56.40
78649;DHT22;67962;47.310;9.642;2023-06-22T02:32:45;23.10;56.40
78649;DHT22;67962;47.310;9.642;2023-06-22T02:35:11;23.00;56.50
78649;DHT22;67962;47.310;9.642;2023-06-22T02:37:37;22.90;56.50
78649;DHT22;67962;47.310;9.642;2023-06-22T02:40:10;23.00;56.70
78649;DHT22;67962;47.310;9.642;2023-06-22T02:42:37;23.00;56.90
78649;DHT22;67962;47.310;9.642;2023-06-22T02:45:03;23.00;57.30
78649;DHT22;67962;47.310;9.642;2023-06-22T02:47:29;23.00;57.30
78649;DHT22;67962;47.310;9.642;2023-06-22T02:49:55;22.90;57.00
78649;DHT22;67962;47.310;9.642;2023-06-22T02:52:20;22.90;57.10
78649;DHT22;67962;47.310;9.642;2023-06-22T02:54:46;22.90;57.20
78649;DHT22;67962;47.310;9.642;2023-06-22T02:57:12;22.90;57.20
78649;DHT22;67962;47.310;9.642;2023-06-22T02:59:40;22.90;56.90
78649;DHT22;67962;47.310;9.642;2023-06-22T03:02:07;23.00;57.00
78649;DHT22;67962;47.310;9.642;2023-06-22T03:04:33;22.90;57.30
78649;DHT22;67962;47.310;9.642;2023-06-22T03:06:59;22.90;57.20
78649;DHT22;67962;47.310;9.642;2023-06-22T03:09:27;22.80;57.40
78649;DHT22;67962;47.310;9.642;2023-06-22T03:11:54;22.80;57.50
78649;DHT22;67962;47.310;9.642;2023-06-22T03:14:20;22.80;57.40
78649;DHT22;67962;47.310;9.642;2023-06-22T03:16:46;22.90;57.40
78649;DHT22;67962;47.310;9.642;2023-06-22T03:19:12;22.90;57.30
78649;DHT22;67962;47.310;9.642;2023-06-22T03:21:38;22.80;57.50
78649;DHT22;67962;47.310;9.642;2023-06-22T03:24:05;22.70;58.10
78649;DHT22;67962;47.310;9.642;2023-06-22T03:26:30;22.60;58.30
78649;DHT22;67962;47.310;9.642;2023-06-22T03:28:56;22.60;58.90
78649;DHT22;67962;47.310;9.642;2023-06-22T03:31:22;22.50;58.50
78649;DHT22;67962;47.310;9.642;2023-06-22T03:33:49;22.50;58.60
78649;DHT22;67962;47.310;9.642;2023-06-22T03:36:15;22.60;58.60
78649;DHT22;67962;47.310;9.642;2023-06-22T03:38:45;22.60;58.60
78649;DHT22;67962;47.310;9.642;2023-06-22T03:41:11;22.60;58.80
78649;DHT22;67962;47.310;9.642;2023-06-22T03:43:37;22.40;58.60
78649;DHT22;67962;47.310;9.642;2023-06-22T03:46:02;22.40;58.90
78649;DHT22;67962;47.310;9.642;2023-06-22T03:48:28;22.50;58.80
78649;DHT22;67962;47.310;9.642;2023-06-22T03:50:54;22.50;58.70
78649;DHT22;67962;47.310;9.642;2023-06-22T03:53:19;22.50;58.80
78649;DHT22;67962;47.310;9.642;2023-06-22T03:55:49;22.50;59.10
78649;DHT22;67962;47.310;9.642;2023-06-22T03:58:16;22.50;59.10
78649;DHT22;67962;47.310;9.642;2023-06-22T04:00:42;22.40;59.00
78649;DHT22;67962;47.310;9.642;2023-06-22T04:03:08;22.50;59.10
78649;DHT22;67962;47.310;9.642;2023-06-22T04:05:34;22.50;58.90
78649;DHT22;67962;47.310;9.642;2023-06-22T04:07:59;22.60;59.90
78649;DHT22;67962;47.310;9.642;2023-06-22T04:10:25;22.70;59.00
78649;DHT22;67962;47.310;9.642;2023-06-22T04:12:50;22.80;59.10
78649;DHT22;67962;47.310;9.642;2023-06-22T04:15:16;22.80;59.40
78649;DHT22;67962;47.310;9.642;2023-06-22T04:17:42;22.80;59.60
78649;DHT22;67962;47.310;9.642;2023-06-22T04:20:08;22.80;59.00
78649;DHT22;67962;47.310;9.642;2023-06-22T04:22:34;22.90;58.70
78649;DHT22;67962;47.310;9.642;2023-06-22T04:24:59;22.90;58.80
78649;DHT22;67962;47.310;9.642;2023-06-22T04:27:25;22.90;59.40
78649;DHT22;67962;47.310;9.642;2023-06-22T04:29:51;23.00;59.90
78649;DHT22;67962;47.310;9.642;2023-06-22T04:32:17;23.00;59.80
78649;DHT22;67962;47.310;9.642;2023-06-22T04:34:43;23.00;60.00
78649;DHT22;67962;47.310;9.642;2023-06-22T04:37:09;22.90;60.30
78649;DHT22;67962;47.310;9.642;2023-06-22T04:39:34;22.90;60.20
78649;DHT22;67962;47.310;9.642;2023-06-22T04:42:01;23.10;60.30
78649;DHT22;67962;47.310;9.642;2023-06-22T04:44:27;23.10;60.30
78649;DHT22;67962;47.310;9.642;2023-06-22T04:46:55;23.20;60.00
78649;DHT22;67962;47.310;9.642;2023-06-22T04:49:26;23.40;60.60
78649;DHT22;67962;47.310;9.642;2023-06-22T04:52:09;23.60;59.80
78649;DHT22;67962;47.310;9.642;2023-06-22T04:54:36;23.60;59.90
78649;DHT22;67962;47.310;9.642;2023-06-22T04:57:04;23.70;59.80
78649;DHT22;67962;47.310;9.642;2023-06-22T04:59:31;23.80;59.60
78649;DHT22;67962;47.310;9.642;2023-06-22T05:02:01;23.90;59.40
78649;DHT22;67962;47.310;9.642;2023-06-22T05:04:30;24.00;59.20
78649;DHT22;67962;47.310;9.642;2023-06-22T05:07:00;24.00;59.20
78649;DHT22;67962;47.310;9.642;2023-06-22T05:09:26;24.20;59.20
78649;DHT22;67962;47.310;9.642;2023-06-22T05:11:51;24.40;58.90
78649;DHT22;67962;47.310;9.642;2023-06-22T05:14:18;24.60;58.20
78649;DHT22;67962;47.310;9.642;2023-06-22T05:16:44;24.70;57.60
78649;DHT22;67962;47.310;9.642;2023-06-22T05:19:11;24.70;57.90
78649;DHT22;67962;47.310;9.642;2023-06-22T05:21:37;24.90;57.80
78649;DHT22;67962;47.310;9.642;2023-06-22T05:24:03;25.20;56.70
78649;DHT22;67962;47.310;9.642;2023-06-22T05:26:34;25.20;56.20
78649;DHT22;67962;47.310;9.642;2023-06-22T05:29:01;25.30;55.90
78649;DHT22;67962;47.310;9.642;2023-06-22T05:31:28;25.30;55.80
78649;DHT22;67962;47.310;9.642;2023-06-22T05:33:55;25.60;55.50
78649;DHT22;67962;47.310;9.642;2023-06-22T05:36:21;26.10;54.90
78649;DHT22;67962;47.310;9.642;2023-06-22T05:38:50;26.40;54.10
78649;DHT22;67962;47.310;9.642;2023-06-22T05:41:16;26.60;52.30
78649;DHT22;67962;47.310;9.642;2023-06-22T05:43:42;26.90;53.40
78649;DHT22;67962;47.310;9.642;2023-06-22T05:46:07;27.30;51.50
78649;DHT22;67962;47.310;9.642;2023-06-22T05:48:33;27.50;50.10
78649;DHT22;67962;47.310;9.642;2023-06-22T05:50:59;27.70;50.50
78649;DHT22;67962;47.310;9.642;2023-06-22T05:53:25;28.10;49.60
78649;DHT22;67962;47.310;9.642;2023-06-22T05:55:50;28.40;49.30
78649;DHT22;67962;47.310;9.642;2023-06-22T05:58:16;28.40;49.00
78649;DHT22;67962;47.310;9.642;2023-06-22T06:00:42;28.30;48.90
78649;DHT22;67962;47.310;9.642;2023-06-22T06:03:09;28.40;49.00
78649;DHT22;67962;47.310;9.642;2023-06-22T06:05:35;28.70;49.10
78649;DHT22;67962;47.310;9.642;2023-06-22T06:08:02;29.10;48.20
78649;DHT22;67962;47.310;9.642;2023-06-22T06:10:28;29.20;47.30
78649;DHT22;67962;47.310;9.642;2023-06-22T06:12:55;29.30;48.00
78649;DHT22;67962;47.310;9.642;2023-06-22T06:15:21;29.20;46.50
78649;DHT22;67962;47.310;9.642;2023-06-22T06:17:51;29.00;47.10
78649;DHT22;67962;47.310;9.642;2023-06-22T06:20:22;28.80;47.50
78649;DHT22;67962;47.310;9.642;2023-06-22T06:22:49;28.70;48.00
78649;DHT22;67962;47.310;9.642;2023-06-22T06:25:15;29.00;47.50
78649;DHT22;67962;47.310;9.642;2023-06-22T06:27:46;29.20;46.50
78649;DHT22;67962;47.310;9.642;2023-06-22T06:30:12;29.10;46.80
78649;DHT22;67962;47.310;9.642;2023-06-22T06:32:39;29.40;46.90
78649;DHT22;67962;47.310;9.642;2023-06-22T06:35:09;29.90;46.20
78649;DHT22;67962;47.310;9.642;2023-06-22T06:37:40;30.00;44.60
78649;DHT22;67962;47.310;9.642;2023-06-22T06:40:07;30.10;45.30
78649;DHT22;67962;47.310;9.642;2023-06-22T06:42:37;30.30;45.30
78649;DHT22;67962;47.310;9.642;2023-06-22T06:45:05;30.60;43.70
78649;DHT22;67962;47.310;9.642;2023-06-22T06:47:30;30.70;44.10
78649;DHT22;67962;47.310;9.642;2023-06-22T06:49:56;30.70;43.10
78649;DHT22;67962;47.310;9.642;2023-06-22T06:52:22;30.70;43.40
78649;DHT22;67962;47.310;9.642;2023-06-22T06:54:47;30.80;43.20
78649;DHT22;67962;47.310;9.642;2023-06-22T06:57:13;30.90;43.30
78649;DHT22;67962;47.310;9.642;2023-06-22T06:59:40;31.20;42.90
78649;DHT22;67962;47.310;9.642;2023-06-22T07:02:06;31.70;42.00
78649;DHT22;67962;47.310;9.642;2023-06-22T07:04:32;32.10;40.90
78649;DHT22;67962;47.310;9.642;2023-06-22T07:07:00;32.20;41.00
78649;DHT22;67962;47.310;9.642;2023-06-22T07:09:26;32.40;41.00
78649;DHT22;67962;47.310;9.642;2023-06-22T07:11:52;32.30;40.10
78649;DHT22;67962;47.310;9.642;2023-06-22T07:14:17;32.20;39.40
78649;DHT22;67962;47.310;9.642;2023-06-22T07:16:43;32.10;39.70
78649;DHT22;67962;47.310;9.642;2023-06-22T07:19:11;32.10;39.70
78649;DHT22;67962;47.310;9.642;2023-06-22T07:21:37;31.90;40.60
78649;DHT22;67962;47.310;9.642;2023-06-22T07:24:04;31.90;40.40
78649;DHT22;67962;47.310;9.642;2023-06-22T07:26:31;31.50;41.00
78649;DHT22;67962;47.310;9.642;2023-06-22T07:28:57;31.10;42.60
78649;DHT22;67962;47.310;9.642;2023-06-22T07:31:24;31.30;42.90
78649;DHT22;67962;47.310;9.642;2023-06-22T07:33:50;31.60;42.00
78649;DHT22;67962;47.310;9.642;2023-06-22T07:36:17;31.60;41.90
78649;DHT22;67962;47.310;9.642;2023-06-22T07:38:42;31.80;41.80
78649;DHT22;67962;47.310;9.642;2023-06-22T07:41:08;32.10;41.50
78649;DHT22;67962;47.310;9.642;2023-06-22T07:43:34;32.50;41.00
78649;DHT22;67962;47.310;9.642;2023-06-22T07:46:03;32.80;40.30
78649;DHT22;67962;47.310;9.642;2023-06-22T07:48:28;33.10;40.10
78649;DHT22;67962;47.310;9.642;2023-06-22T07:50:54;33.20;39.80
78649;DHT22;67962;47.310;9.642;2023-06-22T07:53:21;32.90;38.60
78649;DHT22;67962;47.310;9.642;2023-06-22T07:55:47;32.70;38.90
78649;DHT22;67962;47.310;9.642;2023-06-22T07:58:13;32.30;38.90
78649;DHT22;67962;47.310;9.642;2023-06-22T08:00:39;32.10;40.20
78649;DHT22;67962;47.310;9.642;2023-06-22T08:03:04;32.00;41.40
78649;DHT22;67962;47.310;9.642;2023-06-22T08:05:31;31.80;41.00
78649;DHT22;67962;47.310;9.642;2023-06-22T08:07:57;31.50;41.00
78649;DHT22;67962;47.310;9.642;2023-06-22T08:10:22;31.20;41.40
78649;DHT22;67962;47.310;9.642;2023-06-22T08:12:48;31.00;41.60
78649;DHT22;67962;47.310;9.642;2023-06-22T08:15:14;31.10;42.00
78649;DHT22;67962;47.310;9.642;2023-06-22T08:17:40;31.10;41.80
78649;DHT22;67962;47.310;9.642;2023-06-22T08:20:07;31.10;41.60
78649;DHT22;67962;47.310;9.642;2023-06-22T08:22:40;31.10;42.10
78649;DHT22;67962;47.310;9.642;2023-06-22T08:25:07;31.30;42.30
78649;DHT22;67962;47.310;9.642;2023-06-22T08:27:32;31.30;42.00
78649;DHT22;67962;47.310;9.642;2023-06-22T08:29:59;31.70;42.40
78649;DHT22;67962;47.310;9.642;2023-06-22T08:32:26;32.10;41.80
78649;DHT22;67962;47.310;9.642;2023-06-22T08:34:56;32.00;41.80
78649;DHT22;67962;47.310;9.642;2023-06-22T08:37:22;31.80;41.40
78649;DHT22;67962;47.310;9.642;2023-06-22T08:39:56;31.70;42.10
78649;DHT22;67962;47.310;9.642;2023-06-22T08:42:22;31.40;41.80
78649;DHT22;67962;47.310;9.642;2023-06-22T08:44:50;31.00;42.60
78649;DHT22;67962;47.310;9.642;2023-06-22T08:47:15;30.60;43.50
78649;DHT22;67962;47.310;9.642;2023-06-22T08:49:41;30.40;44.00
78649;DHT22;67962;47.310;9.642;2023-06-22T08:52:07;30.30;44.10
78649;DHT22;67962;47.310;9.642;2023-06-22T08:54:33;30.40;44.70
78649;DHT22;67962;47.310;9.642;2023-06-22T08:57:00;30.60;45.10
78649;DHT22;67962;47.310;9.642;2023-06-22T08:59:26;30.70;45.20
78649;DHT22;67962;47.310;9.642;2023-06-22T09:01:52;30.10;45.30
78649;DHT22;67962;47.310;9.642;2023-06-22T09:04:17;29.80;46.40
78649;DHT22;67962;47.310;9.642;2023-06-22T09:06:43;29.40;46.90
78649;DHT22;67962;47.310;9.642;2023-06-22T09:09:12;29.00;48.00
78649;DHT22;67962;47.310;9.642;2023-06-22T09:11:38;28.60;48.30
78649;DHT22;67962;47.310;9.642;2023-06-22T09:14:03;28.20;49.80
78649;DHT22;67962;47.310;9.642;2023-06-22T09:16:29;27.90;50.20
78649;DHT22;67962;47.310;9.642;2023-06-22T09:18:55;27.90;50.30
78649;DHT22;67962;47.310;9.642;2023-06-22T09:21:21;27.80;50.60
78649;DHT22;67962;47.310;9.642;2023-06-22T09:23:47;27.80;49.70
78649;DHT22;67962;47.310;9.642;2023-06-22T09:26:17;27.80;50.30
78649;DHT22;67962;47.310;9.642;2023-06-22T09:28:43;27.90;50.10
78649;DHT22;67962;47.310;9.642;2023-06-22T09:31:08;28.00;50.30
78649;DHT22;67962;47.310;9.642;2023-06-22T09:33:35;28.20;48.70
78649;DHT22;67962;47.310;9.642;2023-06-22T09:36:01;28.30;49.70
78649;DHT22;67962;47.310;9.642;2023-06-22T09:38:27;28.40;48.20
78649;DHT22;67962;47.310;9.642;2023-06-22T09:40:53;28.40;48.20
78649;DHT22;67962;47.310;9.642;2023-06-22T09:43:18;28.60;48.20
78649;DHT22;67962;47.310;9.642;2023-06-22T09:45:44;28.70;46.90
78649;DHT22;67962;47.310;9.642;2023-06-22T09:48:10;28.60;46.90
78649;DHT22;67962;47.310;9.642;2023-06-22T09:50:35;28.60;47.20
78649;DHT22;67962;47.310;9.642;2023-06-22T09:53:02;28.50;48.10
78649;DHT22;67962;47.310;9.642;2023-06-22T09:55:28;28.50;47.80
78649;DHT22;67962;47.310;9.642;2023-06-22T09:57:54;28.50;47.70
78649;DHT22;67962;47.310;9.642;2023-06-22T10:00:21;28.60;48.40
78649;DHT22;67962;47.310;9.642;2023-06-22T10:02:48;28.60;47.80
78649;DHT22;67962;47.310;9.642;2023-06-22T10:05:13;28.60;47.70
78649;DHT22;67962;47.310;9.642;2023-06-22T10:07:39;28.60;47.50
78649;DHT22;67962;47.310;9.642;2023-06-22T10:10:09;28.60;48.40
78649;DHT22;67962;47.310;9.642;2023-06-22T10:12:34;28.70;47.90
78649;DHT22;67962;47.310;9.642;2023-06-22T10:15:00;28.70;47.80
78649;DHT22;67962;47.310;9.642;2023-06-22T10:17:26;28.80;48.30
78649;DHT22;67962;47.310;9.642;2023-06-22T10:19:52;28.90;47.30
78649;DHT22;67962;47.310;9.642;2023-06-22T10:22:17;29.00;47.60
78649;DHT22;67962;47.310;9.642;2023-06-22T10:24:43;29.00;47.30
78649;DHT22;67962;47.310;9.642;2023-06-22T10:27:12;29.20;47.10
78649;DHT22;67962;47.310;9.642;2023-06-22T10:29:39;29.30;46.40
78649;DHT22;67962;47.310;9.642;2023-06-22T10:32:05;29.30;45.70
78649;DHT22;67962;47.310;9.642;2023-06-22T10:34:31;29.20;45.90
78649;DHT22;67962;47.310;9.642;2023-06-22T10:36:56;29.30;46.60
78649;DHT22;67962;47.310;9.642;2023-06-22T10:39:22;29.40;46.30
78649;DHT22;67962;47.310;9.642;2023-06-22T10:41:48;29.50;44.50
78649;DHT22;67962;47.310;9.642;2023-06-22T10:44:13;29.70;44.40
78649;DHT22;67962;47.310;9.642;2023-06-22T10:46:39;29.90;43.20
78649;DHT22;67962;47.310;9.642;2023-06-22T10:49:05;30.10;43.40
78649;DHT22;67962;47.310;9.642;2023-06-22T10:51:30;30.10;41.00
78649;DHT22;67962;47.310;9.642;2023-06-22T10:53:57;30.20;42.10
78649;DHT22;67962;47.310;9.642;2023-06-22T10:56:23;30.30;41.20
78649;DHT22;67962;47.310;9.642;2023-06-22T10:58:49;30.40;41.30
78649;DHT22;67962;47.310;9.642;2023-06-22T11:01:15;30.60;40.50
78649;DHT22;67962;47.310;9.642;2023-06-22T11:03:41;30.60;40.60
78649;DHT22;67962;47.310;9.642;2023-06-22T11:06:06;30.80;42.80
78649;DHT22;67962;47.310;9.642;2023-06-22T11:08:32;30.90;43.80
78649;DHT22;67962;47.310;9.642;2023-06-22T11:10:58;30.90;42.50
78649;DHT22;67962;47.310;9.642;2023-06-22T11:13:23;31.00;42.60
78649;DHT22;67962;47.310;9.642;2023-06-22T11:15:50;31.20;43.30
78649;DHT22;67962;47.310;9.642;2023-06-22T11:18:16;31.40;43.10
78649;DHT22;67962;47.310;9.642;2023-06-22T11:20:42;31.60;43.40
78649;DHT22;67962;47.310;9.642;2023-06-22T11:23:08;31.70;43.10
78649;DHT22;67962;47.310;9.642;2023-06-22T11:25:34;31.60;42.90
78649;DHT22;67962;47.310;9.642;2023-06-22T11:28:03;31.60;43.40
78649;DHT22;67962;47.310;9.642;2023-06-22T11:30:29;31.60;42.60
78649;DHT22;67962;47.310;9.642;2023-06-22T11:33:00;31.70;42.90
78649;DHT22;67962;47.310;9.642;2023-06-22T11:35:26;31.80;42.50
78649;DHT22;67962;47.310;9.642;2023-06-22T11:37:51;31.90;43.30
78649;DHT22;67962;47.310;9.642;2023-06-22T11:40:17;32.00;43.70
78649;DHT22;67962;47.310;9.642;2023-06-22T11:42:43;32.20;43.30
78649;DHT22;67962;47.310;9.642;2023-06-22T11:45:09;32.30;43.60
78649;DHT22;67962;47.310;9.642;2023-06-22T11:47:35;32.20;43.50
78649;DHT22;67962;47.310;9.642;2023-06-22T11:50:02;32.10;43.50
78649;DHT22;67962;47.310;9.642;2023-06-22T11:52:27;32.00;43.90
78649;DHT22;67962;47.310;9.642;2023-06-22T11:54:53;31.90;44.40
78649;DHT22;67962;47.310;9.642;2023-06-22T11:57:19;31.80;44.70
78649;DHT22;67962;47.310;9.642;2023-06-22T11:59:44;31.70;45.00
78649;DHT22;67962;47.310;9.642;2023-06-22T12:02:10;31.60;45.20
78649;DHT22;67962;47.310;9.642;2023-06-22T12:04:36;31.40;45.20
78649;DHT22;67962;47.310;9.642;2023-06-22T12:07:02;31.30;45.40
78649;DHT22;67962;47.310;9.642;2023-06-22T12:09:27;31.10;45.80
78649;DHT22;67962;47.310;9.642;2023-06-22T12:11:53;31.00;45.80
78649;DHT22;67962;47.310;9.642;2023-06-22T12:14:19;30.80;46.00
78649;DHT22;67962;47.310;9.642;2023-06-22T12:16:44;30.80;47.00
78649;DHT22;67962;47.310;9.642;2023-06-22T12:19:11;30.90;46.50
78649;DHT22;67962;47.310;9.642;2023-06-22T12:21:37;31.10;45.80
78649;DHT22;67962;47.310;9.642;2023-06-22T12:24:03;31.10;45.70
78649;DHT22;67962;47.310;9.642;2023-06-22T12:26:29;31.20;46.00
78649;DHT22;67962;47.310;9.642;2023-06-22T12:28:54;31.40;46.20
78649;DHT22;67962;47.310;9.642;2023-06-22T12:31:20;31.50;46.10
78649;DHT22;67962;47.310;9.642;2023-06-22T12:33:46;31.60;46.00
78649;DHT22;67962;47.310;9.642;2023-06-22T12:36:11;31.70;46.00
78649;DHT22;67962;47.310;9.642;2023-06-22T12:38:37;31.80;45.90
78649;DHT22;67962;47.310;9.642;2023-06-22T12:41:03;31.90;45.40
78649;DHT22;67962;47.310;9.642;2023-06-22T12:43:28;31.90;45.20
78649;DHT22;67962;47.310;9.642;2023-06-22T12:45:54;31.80;44.80
78649;DHT22;67962;47.310;9.642;2023-06-22T12:48:20;31.80;45.60
78649;DHT22;67962;47.310;9.642;2023-06-22T12:50:46;31.60;45.40
78649;DHT22;67962;47.310;9.642;2023-06-22T12:53:13;31.40;45.70
78649;DHT22;67962;47.310;9.642;2023-06-22T12:55:38;31.20;46.50
78649;DHT22;67962;47.310;9.642;2023-06-22T12:58:04;31.10;47.00
78649;DHT22;67962;47.310;9.642;2023-06-22T13:00:30;31.00;46.00
78649;DHT22;67962;47.310;9.642;2023-06-22T13:02:55;31.00;47.00
78649;DHT22;67962;47.310;9.642;2023-06-22T13:05:21;31.10;47.30
78649;DHT22;67962;47.310;9.642;2023-06-22T13:07:47;31.30;46.70
78649;DHT22;67962;47.310;9.642;2023-06-22T13:10:12;31.40;46.10
78649;DHT22;67962;47.310;9.642;2023-06-22T13:12:38;31.60;46.10
78649;DHT22;67962;47.310;9.642;2023-06-22T13:15:04;31.70;45.60
78649;DHT22;67962;47.310;9.642;2023-06-22T13:17:30;31.80;44.90
78649;DHT22;67962;47.310;9.642;2023-06-22T13:19:56;31.80;44.50
78649;DHT22;67962;47.310;9.642;2023-06-22T13:22:35;31.90;43.10
78649;DHT22;67962;47.310;9.642;2023-06-22T13:25:09;31.70;43.90
78649;DHT22;67962;47.310;9.642;2023-06-22T13:27:42;31.90;45.00
78649;DHT22;67962;47.310;9.642;2023-06-22T13:30:08;32.00;40.00
78649;DHT22;67962;47.310;9.642;2023-06-22T13:32:34;32.00;40.50
78649;DHT22;67962;47.310;9.642;2023-06-22T13:35:00;32.20;42.70
78649;DHT22;67962;47.310;9.642;2023-06-22T13:37:26;32.30;41.30
78649;DHT22;67962;47.310;9.642;2023-06-22T13:39:52;32.40;39.70
78649;DHT22;67962;47.310;9.642;2023-06-22T13:42:18;32.40;40.20
78649;DHT22;67962;47.310;9.642;2023-06-22T13:44:44;32.40;39.40
78649;DHT22;67962;47.310;9.642;2023-06-22T13:47:09;32.40;38.70
78649;DHT22;67962;47.310;9.642;2023-06-22T13:49:35;32.40;37.20
78649;DHT22;67962;47.310;9.642;2023-06-22T13:52:01;32.60;36.10
78649;DHT22;67962;47.310;9.642;2023-06-22T13:54:28;32.80;34.80
78649;DHT22;67962;47.310;9.642;2023-06-22T13:56:54;32.90;33.40
78649;DHT22;67962;47.310;9.642;2023-06-22T13:59:20;32.90;32.10
78649;DHT22;67962;47.310;9.642;2023-06-22T14:01:46;32.90;30.40
78649;DHT22;67962;47.310;9.642;2023-06-22T14:04:12;32.90;29.70
78649;DHT22;67962;47.310;9.642;2023-06-22T14:06:38;32.80;30.00
78649;DHT22;67962;47.310;9.642;2023-06-22T14:09:03;32.80;30.20
78649;DHT22;67962;47.310;9.642;2023-06-22T14:11:29;32.70;31.30
78649;DHT22;67962;47.310;9.642;2023-06-22T14:13:55;32.80;31.10
78649;DHT22;67962;47.310;9.642;2023-06-22T14:16:20;32.80;31.60
78649;DHT22;67962;47.310;9.642;2023-06-22T14:18:46;32.90;31.00
78649;DHT22;67962;47.310;9.642;2023-06-22T14:21:12;32.80;31.70
78649;DHT22;67962;47.310;9.642;2023-06-22T14:23:37;32.70;32.10
78649;DHT22;67962;47.310;9.642;2023-06-22T14:26:03;32.70;32.50
78649;DHT22;67962;47.310;9.642;2023-06-22T14:28:29;32.80;33.80
78649;DHT22;67962;47.310;9.642;2023-06-22T14:30:55;32.90;33.00
78649;DHT22;67962;47.310;9.642;2023-06-22T14:33:22;32.90;32.80
78649;DHT22;67962;47.310;9.642;2023-06-22T14:35:47;32.90;32.50
78649;DHT22;67962;47.310;9.642;2023-06-22T14:38:13;32.90;32.40
78649;DHT22;67962;47.310;9.642;2023-06-22T14:40:39;33.00;31.80
78649;DHT22;67962;47.310;9.642;2023-06-22T14:43:04;32.90;31.90
78649;DHT22;67962;47.310;9.642;2023-06-22T14:45:30;32.90;32.90
78649;DHT22;67962;47.310;9.642;2023-06-22T14:47:56;32.90;34.10
78649;DHT22;67962;47.310;9.642;2023-06-22T14:50:21;32.80;32.70
78649;DHT22;67962;47.310;9.642;2023-06-22T14:52:47;32.60;32.60
78649;DHT22;67962;47.310;9.642;2023-06-22T14:55:13;32.40;32.80
78649;DHT22;67962;47.310;9.642;2023-06-22T14:57:38;32.30;32.90
78649;DHT22;67962;47.310;9.642;2023-06-22T15:00:05;32.30;33.70
78649;DHT22;67962;47.310;9.642;2023-06-22T15:02:32;32.10;34.40
78649;DHT22;67962;47.310;9.642;2023-06-22T15:04:57;31.90;35.60
78649;DHT22;67962;47.310;9.642;2023-06-22T15:07:23;31.70;36.80
78649;DHT22;67962;47.310;9.642;2023-06-22T15:09:49;31.50;37.10
78649;DHT22;67962;47.310;9.642;2023-06-22T15:12:14;31.40;37.60
78649;DHT22;67962;47.310;9.642;2023-06-22T15:14:40;31.20;38.00
78649;DHT22;67962;47.310;9.642;2023-06-22T15:17:07;31.00;41.70
78649;DHT22;67962;47.310;9.642;2023-06-22T15:19:37;30.60;46.40
78649;DHT22;67962;47.310;9.642;2023-06-22T15:22:04;29.90;49.90
78649;DHT22;67962;47.310;9.642;2023-06-22T15:24:31;29.50;50.90
78649;DHT22;67962;47.310;9.642;2023-06-22T15:26:57;29.40;52.20
78649;DHT22;67962;47.310;9.642;2023-06-22T15:29:22;29.30;53.40